sensor_id;sensor_type;location;lat;lon;timestamp;pressure;altitude;pressure_sealevel;temperature;humidity
24558;BME280;12726;49.148;8.582;2023-07-09T00:02:12;100585.50;;;21.78;71.80
24558;BME280;12726;49.148;8.582;2023-07-09T00:04:58;100580.31;;;21.71;72.21
24558;BME280;12726;49.148;8.582;2023-07-09T00:07:44;100582.28;;;21.66;72.22
24558;BME280;12726;49.148;8.582;2023-07-09T00:10:30;100585.31;;;21.59;73.11
24558;BME280;12726;49.148;8.582;2023-07-09T00:13:17;100593.00;;;21.57;73.58
24558;BME280;12726;49.148;8.582;2023-07-09T00:16:10;100587.25;;;21.54;73.30
24558;BME280;12726;49.148;8.582;2023-07-09T00:18:56;100582.88;;;21.53;73.31
24558;BME280;12726;49.148;8.582;2023-07-09T00:21:41;100584.81;;;21.52;72.78
24558;BME280;12726;49.148;8.582;2023-07-09T00:24:29;100593.28;;;21.56;72.89
24558;BME280;12726;49.148;8.582;2023-07-09T00:27:16;100594.63;;;21.53;72.97
24558;BME280;12726;49.148;8.582;2023-07-09T00:30:04;100596.59;;;21.53;73.13
24558;BME280;12726;49.148;8.582;2023-07-09T00:32:50;100601.25;;;21.52;72.91
24558;BME280;12726;49.148;8.582;2023-07-09T00:35:35;100596.59;;;21.53;73.67
24558;BME280;12726;49.148;8.582;2023-07-09T00:38:24;100595.75;;;21.47;74.40
24558;BME280;12726;49.148;8.582;2023-07-09T00:41:14;100598.28;;;21.33;75.77
24558;BME280;12726;49.148;8.582;2023-07-09T00:44:22;100600.50;;;21.11;76.90
24558;BME280;12726;49.148;8.582;2023-07-09T00:47:20;100598.34;;;20.93;78.01
24558;BME280;12726;49.148;8.582;2023-07-09T00:50:17;100600.56;;;20.81;79.08
24558;BME280;12726;49.148;8.582;2023-07-09T00:53:10;100595.38;;;20.74;79.20
24558;BME280;12726;49.148;8.582;2023-07-09T00:56:04;100597.81;;;20.70;79.41
24558;BME280;12726;49.148;8.582;2023-07-09T00:58:53;100597.28;;;20.74;79.56
24558;BME280;12726;49.148;8.582;2023-07-09T01:01:39;100596.19;;;20.75;79.74
24558;BME280;12726;49.148;8.582;2023-07-09T01:04:27;100604.66;;;20.78;79.65
24558;BME280;12726;49.148;8.582;2023-07-09T01:07:13;100615.06;;;20.81;79.23
24558;BME280;12726;49.148;8.582;2023-07-09T01:09:58;100608.75;;;20.86;79.41
24558;BME280;12726;49.148;8.582;2023-07-09T01:12:44;100610.69;;;20.85;78.99
24558;BME280;12726;49.148;8.582;2023-07-09T01:15:31;100609.84;;;20.85;78.67
24558;BME280;12726;49.148;8.582;2023-07-09T01:18:17;100608.47;;;20.82;78.61
24558;BME280;12726;49.148;8.582;2023-07-09T01:21:09;100613.44;;;20.80;77.92
24558;BME280;12726;49.148;8.582;2023-07-09T01:24:11;100614.22;;;20.76;78.09
24558;BME280;12726;49.148;8.582;2023-07-09T01:26:56;100611.50;;;20.70;78.48
24558;BME280;12726;49.148;8.582;2023-07-09T01:29:43;100617.53;;;20.62;79.03
24558;BME280;12726;49.148;8.582;2023-07-09T01:32:30;100615.06;;;20.61;78.39
24558;BME280;12726;49.148;8.582;2023-07-09T01:35:17;100625.47;;;20.59;78.87
24558;BME280;12726;49.148;8.582;2023-07-09T01:38:05;100628.72;;;20.61;78.66
24558;BME280;12726;49.148;8.582;2023-07-09T01:40:50;100629.31;;;20.58;79.06
24558;BME280;12726;49.148;8.582;2023-07-09T01:43:35;100630.66;;;20.55;78.85
24558;BME280;12726;49.148;8.582;2023-07-09T01:46:20;100622.19;;;20.57;79.06
24558;BME280;12726;49.148;8.582;2023-07-09T01:49:06;100617.53;;;20.52;79.17
24558;BME280;12726;49.148;8.582;2023-07-09T01:51:52;100613.16;;;20.51;79.18
24558;BME280;12726;49.148;8.582;2023-07-09T01:54:39;100614.50;;;20.49;79.02
24558;BME280;12726;49.148;8.582;2023-07-09T01:57:26;100618.06;;;20.44;79.48
24558;BME280;12726;49.148;8.582;2023-07-09T02:00:17;100611.78;;;20.44;79.82
24558;BME280;12726;49.148;8.582;2023-07-09T02:03:03;100612.34;;;20.46;79.65
24558;BME280;12726;49.148;8.582;2023-07-09T02:05:49;100613.13;;;20.46;78.89
24558;BME280;12726;49.148;8.582;2023-07-09T02:08:35;100615.06;;;20.46;79.03
24558;BME280;12726;49.148;8.582;2023-07-09T02:11:22;100610.69;;;20.45;79.07
24558;BME280;12726;49.148;8.582;2023-07-09T02:14:07;100609.06;;;20.44;79.20
24558;BME280;12726;49.148;8.582;2023-07-09T02:16:52;100620.81;;;20.44;78.95
24558;BME280;12726;49.148;8.582;2023-07-09T02:19:38;100616.44;;;20.38;79.07
24558;BME280;12726;49.148;8.582;2023-07-09T02:22:24;100613.16;;;20.36;79.31
24558;BME280;12726;49.148;8.582;2023-07-09T02:25:09;100607.34;;;20.32;79.90
24558;BME280;12726;49.148;8.582;2023-07-09T02:27:56;100615.28;;;20.29;79.96
24558;BME280;12726;49.148;8.582;2023-07-09T02:30:41;100610.09;;;20.22;80.27
24558;BME280;12726;49.148;8.582;2023-07-09T02:33:27;100613.09;;;20.16;80.75
24558;BME280;12726;49.148;8.582;2023-07-09T02:36:17;100608.41;;;20.06;81.41
24558;BME280;12726;49.148;8.582;2023-07-09T02:39:02;100611.41;;;20.00;81.46
24558;BME280;12726;49.148;8.582;2023-07-09T02:41:48;100612.50;;;19.93;81.49
24558;BME280;12726;49.148;8.582;2023-07-09T02:44:34;100620.94;;;19.92;81.28
24558;BME280;12726;49.148;8.582;2023-07-09T02:47:20;100609.47;;;19.90;81.69
24558;BME280;12726;49.148;8.582;2023-07-09T02:50:06;100620.38;;;19.90;81.70
24558;BME280;12726;49.148;8.582;2023-07-09T02:52:51;100625.06;;;19.94;82.01
24558;BME280;12726;49.148;8.582;2023-07-09T02:55:36;100627.53;;;19.96;82.39
24558;BME280;12726;49.148;8.582;2023-07-09T02:58:21;100630.81;;;19.98;82.75
24558;BME280;12726;49.148;8.582;2023-07-09T03:01:08;100634.34;;;19.93;82.02
24558;BME280;12726;49.148;8.582;2023-07-09T03:03:54;100632.97;;;19.86;82.22
24558;BME280;12726;49.148;8.582;2023-07-09T03:06:40;100630.75;;;19.78;82.38
24558;BME280;12726;49.148;8.582;2023-07-09T03:09:25;100634.53;;;19.72;82.44
24558;BME280;12726;49.148;8.582;2023-07-09T03:12:10;100635.88;;;19.64;82.54
24558;BME280;12726;49.148;8.582;2023-07-09T03:14:56;100635.03;;;19.59;83.20
24558;BME280;12726;49.148;8.582;2023-07-09T03:17:42;100634.19;;;19.53;83.33
24558;BME280;12726;49.148;8.582;2023-07-09T03:20:28;100641.78;;;19.46;83.88
24558;BME280;12726;49.148;8.582;2023-07-09T03:23:13;100647.19;;;19.41;83.89
24558;BME280;12726;49.148;8.582;2023-07-09T03:25:59;100645.25;;;19.36;84.29
24558;BME280;12726;49.148;8.582;2023-07-09T03:28:44;100652.06;;;19.34;85.12
24558;BME280;12726;49.148;8.582;2023-07-09T03:31:30;100650.97;;;19.30;85.22
24558;BME280;12726;49.148;8.582;2023-07-09T03:34:20;100655.03;;;19.27;85.47
24558;BME280;12726;49.148;8.582;2023-07-09T03:37:05;100656.66;;;19.23;85.62
24558;BME280;12726;49.148;8.582;2023-07-09T03:39:50;100659.66;;;19.22;86.39
24558;BME280;12726;49.148;8.582;2023-07-09T03:42:35;100660.47;;;19.22;86.06
24558;BME280;12726;49.148;8.582;2023-07-09T03:45:21;100672.22;;;19.23;85.39
24558;BME280;12726;49.148;8.582;2023-07-09T03:48:08;100673.28;;;19.22;85.88
24558;BME280;12726;49.148;8.582;2023-07-09T03:50:54;100670.56;;;19.22;85.56
24558;BME280;12726;49.148;8.582;2023-07-09T03:53:40;100682.59;;;19.26;85.83
24558;BME280;12726;49.148;8.582;2023-07-09T03:56:25;100670.06;;;19.30;85.27
24558;BME280;12726;49.148;8.582;2023-07-09T03:59:10;100676.63;;;19.34;85.06
24558;BME280;12726;49.148;8.582;2023-07-09T04:01:56;100672.56;;;19.36;85.22
24558;BME280;12726;49.148;8.582;2023-07-09T04:04:41;100681.91;;;19.45;84.92
24558;BME280;12726;49.148;8.582;2023-07-09T04:07:28;100683.03;;;19.49;84.00
24558;BME280;12726;49.148;8.582;2023-07-09T04:10:13;100675.13;;;19.48;84.61
24558;BME280;12726;49.148;8.582;2023-07-09T04:12:58;100678.72;;;19.53;84.24
24558;BME280;12726;49.148;8.582;2023-07-09T04:15:44;100686.09;;;19.58;84.34
24558;BME280;12726;49.148;8.582;2023-07-09T04:18:29;100683.94;;;19.60;83.95
24558;BME280;12726;49.148;8.582;2023-07-09T04:21:14;100686.66;;;19.60;83.81
24558;BME280;12726;49.148;8.582;2023-07-09T04:24:01;100685.88;;;19.65;83.84
24558;BME280;12726;49.148;8.582;2023-07-09T04:26:47;100680.41;;;19.70;83.11
24558;BME280;12726;49.148;8.582;2023-07-09T04:29:33;100682.38;;;19.74;82.73
24558;BME280;12726;49.148;8.582;2023-07-09T04:32:19;100679.91;;;19.78;82.72
24558;BME280;12726;49.148;8.582;2023-07-09T04:35:05;100681.84;;;19.82;82.43
24558;BME280;12726;49.148;8.582;2023-07-09T04:37:50;100690.59;;;19.89;82.15
24558;BME280;12726;49.148;8.582;2023-07-09T04:40:37;100690.41;;;19.96;81.36
24558;BME280;12726;49.148;8.582;2023-07-09T04:43:22;100693.97;;;20.02;81.89
24558;BME280;12726;49.148;8.582;2023-07-09T04:46:07;100697.25;;;20.09;81.76
24558;BME280;12726;49.148;8.582;2023-07-09T04:48:53;100691.53;;;20.10;80.81
24558;BME280;12726;49.148;8.582;2023-07-09T04:51:39;100694.53;;;20.14;81.54
24558;BME280;12726;49.148;8.582;2023-07-09T04:54:24;100702.47;;;20.20;80.99
24558;BME280;12726;49.148;8.582;2023-07-09T04:57:12;100704.44;;;20.30;80.61
24558;BME280;12726;49.148;8.582;2023-07-09T04:59:57;100702.56;;;20.36;80.15
24558;BME280;12726;49.148;8.582;2023-07-09T05:02:43;100714.31;;;20.46;79.88
24558;BME280;12726;49.148;8.582;2023-07-09T05:05:28;100695.22;;;20.56;78.51
24558;BME280;12726;49.148;8.582;2023-07-09T05:08:14;100691.69;;;20.66;77.88
24558;BME280;12726;49.148;8.582;2023-07-09T05:11:00;100707.56;;;20.74;77.29
24558;BME280;12726;49.148;8.582;2023-07-09T05:13:47;100698.53;;;20.84;77.12
24558;BME280;12726;49.148;8.582;2023-07-09T05:16:34;100706.19;;;20.92;77.02
24558;BME280;12726;49.148;8.582;2023-07-09T05:19:19;100707.56;;;20.99;77.21
24558;BME280;12726;49.148;8.582;2023-07-09T05:22:05;100710.56;;;21.08;76.80
24558;BME280;12726;49.148;8.582;2023-07-09T05:24:50;100716.88;;;21.14;76.96
24558;BME280;12726;49.148;8.582;2023-07-09T05:27:35;100705.94;;;21.19;77.20
24558;BME280;12726;49.148;8.582;2023-07-09T05:30:22;100707.28;;;21.26;76.94
24558;BME280;12726;49.148;8.582;2023-07-09T05:33:08;100716.06;;;21.38;76.68
24558;BME280;12726;49.148;8.582;2023-07-09T05:35:53;100723.69;;;21.52;76.53
24558;BME280;12726;49.148;8.582;2023-07-09T05:38:38;100712.97;;;21.65;76.18
24558;BME280;12726;49.148;8.582;2023-07-09T05:41:24;100725.53;;;21.81;75.79
24558;BME280;12726;49.148;8.582;2023-07-09T05:44:09;100702.44;;;22.03;74.69
24558;BME280;12726;49.148;8.582;2023-07-09T05:46:56;100714.41;;;22.27;72.70
24558;BME280;12726;49.148;8.582;2023-07-09T05:49:42;100714.00;;;22.49;70.98
24558;BME280;12726;49.148;8.582;2023-07-09T05:52:28;100710.56;;;22.72;70.65
24558;BME280;12726;49.148;8.582;2023-07-09T05:55:13;100709.03;;;22.95;69.81
24558;BME280;12726;49.148;8.582;2023-07-09T05:57:58;100712.13;;;23.17;68.94
24558;BME280;12726;49.148;8.582;2023-07-09T06:00:44;100714.06;;;23.46;67.17
24558;BME280;12726;49.148;8.582;2023-07-09T06:03:30;100717.75;;;23.65;65.69
24558;BME280;12726;49.148;8.582;2023-07-09T06:06:17;100729.53;;;23.89;63.54
24558;BME280;12726;49.148;8.582;2023-07-09T06:09:02;100719.13;;;24.10;62.97
24558;BME280;12726;49.148;8.582;2023-07-09T06:11:48;100725.88;;;24.23;61.91
24558;BME280;12726;49.148;8.582;2023-07-09T06:14:33;100718.16;;;24.43;61.58
24558;BME280;12726;49.148;8.582;2023-07-09T06:17:18;100721.06;;;24.71;59.49
24558;BME280;12726;49.148;8.582;2023-07-09T06:20:07;100724.25;;;24.78;58.84
24558;BME280;12726;49.148;8.582;2023-07-09T06:22:52;100722.66;;;25.09;59.24
24558;BME280;12726;49.148;8.582;2023-07-09T06:25:38;100721.94;;;25.36;58.12
24558;BME280;12726;49.148;8.582;2023-07-09T06:28:25;100726.41;;;25.64;56.97
24558;BME280;12726;49.148;8.582;2023-07-09T06:31:12;100724.03;;;25.99;56.53
24558;BME280;12726;49.148;8.582;2023-07-09T06:33:57;100719.09;;;26.37;54.38
24558;BME280;12726;49.148;8.582;2023-07-09T06:36:44;100718.06;;;26.82;54.32
24558;BME280;12726;49.148;8.582;2023-07-09T06:39:29;100717.94;;;27.32;52.75
24558;BME280;12726;49.148;8.582;2023-07-09T06:42:15;100720.44;;;27.73;51.33
24558;BME280;12726;49.148;8.582;2023-07-09T06:45:00;100718.84;;;28.20;51.58
24558;BME280;12726;49.148;8.582;2023-07-09T06:47:45;100717.41;;;28.66;49.96
24558;BME280;12726;49.148;8.582;2023-07-09T06:50:33;100714.63;;;29.17;46.99
24558;BME280;12726;49.148;8.582;2023-07-09T06:53:21;100714.53;;;29.61;46.01
24558;BME280;12726;49.148;8.582;2023-07-09T06:56:08;100717.66;;;29.97;44.23
24558;BME280;12726;49.148;8.582;2023-07-09T06:58:53;100722.28;;;30.14;43.41
24558;BME280;12726;49.148;8.582;2023-07-09T07:01:38;100719.41;;;30.31;42.43
24558;BME280;12726;49.148;8.582;2023-07-09T07:04:25;100719.75;;;30.50;42.23
24558;BME280;12726;49.148;8.582;2023-07-09T07:07:10;100723.03;;;30.73;42.10
24558;BME280;12726;49.148;8.582;2023-07-09T07:09:57;100709.84;;;31.03;41.62
24558;BME280;12726;49.148;8.582;2023-07-09T07:12:44;100711.44;;;31.25;39.90
24558;BME280;12726;49.148;8.582;2023-07-09T07:15:30;100708.88;;;31.65;39.07
24558;BME280;12726;49.148;8.582;2023-07-09T07:18:15;100702.72;;;31.71;39.05
24558;BME280;12726;49.148;8.582;2023-07-09T07:21:01;100701.22;;;31.86;38.82
24558;BME280;12726;49.148;8.582;2023-07-09T07:23:46;100707.47;;;32.07;40.45
24558;BME280;12726;49.148;8.582;2023-07-09T07:26:33;100704.91;;;32.26;37.79
24558;BME280;12726;49.148;8.582;2023-07-09T07:29:18;100708.88;;;32.78;37.46
24558;BME280;12726;49.148;8.582;2023-07-09T07:32:05;100701.66;;;33.04;37.07
24558;BME280;12726;49.148;8.582;2023-07-09T07:34:50;100702.91;;;33.35;36.98
24558;BME280;12726;49.148;8.582;2023-07-09T07:37:36;100709.41;;;33.70;35.78
24558;BME280;12726;49.148;8.582;2023-07-09T07:40:21;100716.75;;;33.75;36.15
24558;BME280;12726;49.148;8.582;2023-07-09T07:43:07;100711.34;;;33.82;35.98
24558;BME280;12726;49.148;8.582;2023-07-09T07:45:53;100717.78;;;34.02;35.69
24558;BME280;12726;49.148;8.582;2023-07-09T07:48:38;100700.69;;;34.38;34.93
24558;BME280;12726;49.148;8.582;2023-07-09T07:51:23;100696.22;;;34.53;35.46
24558;BME280;12726;49.148;8.582;2023-07-09T07:54:09;100699.75;;;34.69;35.99
24558;BME280;12726;49.148;8.582;2023-07-09T07:56:54;100694.56;;;34.87;35.66
24558;BME280;12726;49.148;8.582;2023-07-09T07:59:41;100696.19;;;34.88;33.50
24558;BME280;12726;49.148;8.582;2023-07-09T08:02:26;100693.66;;;34.83;34.48
24558;BME280;12726;49.148;8.582;2023-07-09T08:05:12;100684.41;;;34.79;34.31
24558;BME280;12726;49.148;8.582;2023-07-09T08:07:57;100691.09;;;34.93;33.12
24558;BME280;12726;49.148;8.582;2023-07-09T08:10:42;100683.53;;;35.17;33.30
24558;BME280;12726;49.148;8.582;2023-07-09T08:13:28;100690.91;;;35.48;32.29
24558;BME280;12726;49.148;8.582;2023-07-09T08:16:14;100677.72;;;35.48;31.97
24558;BME280;12726;49.148;8.582;2023-07-09T08:19:00;100686.44;;;35.66;32.85
24558;BME280;12726;49.148;8.582;2023-07-09T08:21:45;100679.03;;;35.77;31.83
24558;BME280;12726;49.148;8.582;2023-07-09T08:24:30;100679.78;;;36.00;31.32
24558;BME280;12726;49.148;8.582;2023-07-09T08:27:16;100687.78;;;35.76;30.63
24558;BME280;12726;49.148;8.582;2023-07-09T08:30:02;100679.19;;;35.88;31.95
24558;BME280;12726;49.148;8.582;2023-07-09T08:32:49;100682.78;;;35.88;31.28
24558;BME280;12726;49.148;8.582;2023-07-09T08:35:34;100687.00;;;36.01;29.81
24558;BME280;12726;49.148;8.582;2023-07-09T08:38:20;100674.94;;;36.24;29.78
24558;BME280;12726;49.148;8.582;2023-07-09T08:41:14;100670.56;;;36.00;29.49
24558;BME280;12726;49.148;8.582;2023-07-09T08:44:14;100676.50;;;35.95;31.21
24558;BME280;12726;49.148;8.582;2023-07-09T08:47:10;100669.03;;;36.32;31.09
24558;BME280;12726;49.148;8.582;2023-07-09T08:50:01;100671.00;;;36.58;31.19
24558;BME280;12726;49.148;8.582;2023-07-09T08:52:48;100677.44;;;36.96;30.04
24558;BME280;12726;49.148;8.582;2023-07-09T08:55:33;100681.63;;;37.09;29.63
24558;BME280;12726;49.148;8.582;2023-07-09T08:58:25;100670.09;;;37.17;28.94
24558;BME280;12726;49.148;8.582;2023-07-09T09:01:17;100665.16;;;37.48;29.25
24558;BME280;12726;49.148;8.582;2023-07-09T09:04:07;100673.78;;;37.25;29.11
24558;BME280;12726;49.148;8.582;2023-07-09T09:07:06;100665.72;;;37.20;28.80
24558;BME280;12726;49.148;8.582;2023-07-09T09:10:01;100671.00;;;36.92;28.58
24558;BME280;12726;49.148;8.582;2023-07-09T09:12:58;100667.75;;;36.90;28.74
24558;BME280;12726;49.148;8.582;2023-07-09T09:15:48;100672.63;;;36.93;29.93
24558;BME280;12726;49.148;8.582;2023-07-09T09:18:37;100665.97;;;37.08;29.24
24558;BME280;12726;49.148;8.582;2023-07-09T09:21:27;100661.41;;;37.33;28.61
24558;BME280;12726;49.148;8.582;2023-07-09T09:24:19;100669.50;;;37.01;29.34
24558;BME280;12726;49.148;8.582;2023-07-09T09:27:08;100670.91;;;37.18;30.18
24558;BME280;12726;49.148;8.582;2023-07-09T09:29:53;100664.72;;;37.46;28.06
24558;BME280;12726;49.148;8.582;2023-07-09T09:32:42;100666.19;;;37.73;28.63
24558;BME280;12726;49.148;8.582;2023-07-09T09:35:32;100649.84;;;37.42;27.52
24558;BME280;12726;49.148;8.582;2023-07-09T09:38:22;100665.16;;;37.48;28.67
24558;BME280;12726;49.148;8.582;2023-07-09T09:41:13;100669.06;;;37.36;27.11
24558;BME280;12726;49.148;8.582;2023-07-09T09:43:58;100663.03;;;37.34;27.68
24558;BME280;12726;49.148;8.582;2023-07-09T09:46:43;100654.66;;;37.41;28.32
24558;BME280;12726;49.148;8.582;2023-07-09T09:49:29;100657.03;;;37.80;25.29
24558;BME280;12726;49.148;8.582;2023-07-09T09:52:17;100644.13;;;37.75;25.44
24558;BME280;12726;49.148;8.582;2023-07-09T09:55:11;100654.22;;;37.80;26.24
24558;BME280;12726;49.148;8.582;2023-07-09T09:57:58;100654.06;;;37.62;25.23
24558;BME280;12726;49.148;8.582;2023-07-09T10:00:48;100646.97;;;37.79;25.54
24558;BME280;12726;49.148;8.582;2023-07-09T10:03:34;100635.31;;;37.77;25.41
24558;BME280;12726;49.148;8.582;2023-07-09T10:06:26;100640.94;;;37.33;26.15
24558;BME280;12726;49.148;8.582;2023-07-09T10:09:22;100631.72;;;37.32;26.32
24558;BME280;12726;49.148;8.582;2023-07-09T10:12:15;100631.66;;;37.25;26.22
24558;BME280;12726;49.148;8.582;2023-07-09T10:18:00;100624.53;;;37.38;25.77
24558;BME280;12726;49.148;8.582;2023-07-09T10:20:52;100613.22;;;37.75;26.22
24558;BME280;12726;49.148;8.582;2023-07-09T10:23:48;100609.41;;;38.05;26.34
24558;BME280;12726;49.148;8.582;2023-07-09T10:26:40;100608.44;;;38.55;25.09
24558;BME280;12726;49.148;8.582;2023-07-09T10:29:45;100607.72;;;38.90;24.81
24558;BME280;12726;49.148;8.582;2023-07-09T10:32:42;100610.50;;;38.83;24.03
24558;BME280;12726;49.148;8.582;2023-07-09T10:35:37;100602.84;;;38.69;23.65
24558;BME280;12726;49.148;8.582;2023-07-09T10:38:34;100596.44;;;38.76;23.71
24558;BME280;12726;49.148;8.582;2023-07-09T10:41:23;100603.97;;;38.44;24.12
24558;BME280;12726;49.148;8.582;2023-07-09T10:44:15;100589.09;;;38.47;24.50
24558;BME280;12726;49.148;8.582;2023-07-09T10:47:05;100592.41;;;38.88;23.79
24558;BME280;12726;49.148;8.582;2023-07-09T10:49:51;100591.59;;;38.80;23.84
24558;BME280;12726;49.148;8.582;2023-07-09T10:52:42;100583.09;;;38.59;22.94
24558;BME280;12726;49.148;8.582;2023-07-09T10:55:32;100585.88;;;38.48;23.61
24558;BME280;12726;49.148;8.582;2023-07-09T10:58:26;100577.44;;;38.48;24.17
24558;BME280;12726;49.148;8.582;2023-07-09T11:01:14;100567.09;;;38.84;23.77
24558;BME280;12726;49.148;8.582;2023-07-09T11:04:03;100564.25;;;38.70;23.77
24558;BME280;12726;49.148;8.582;2023-07-09T11:06:56;100566.66;;;38.64;23.05
24558;BME280;12726;49.148;8.582;2023-07-09T11:09:46;100574.28;;;38.64;23.87
24558;BME280;12726;49.148;8.582;2023-07-09T11:12:38;100550.66;;;38.93;24.13
24558;BME280;12726;49.148;8.582;2023-07-09T11:15:29;100560.31;;;39.13;23.49
24558;BME280;12726;49.148;8.582;2023-07-09T11:18:21;100561.03;;;38.75;22.67
24558;BME280;12726;49.148;8.582;2023-07-09T11:21:14;100569.88;;;38.63;23.25
24558;BME280;12726;49.148;8.582;2023-07-09T11:24:00;100564.94;;;38.38;24.73
24558;BME280;12726;49.148;8.582;2023-07-09T11:26:49;100561.31;;;38.38;23.38
24558;BME280;12726;49.148;8.582;2023-07-09T11:29:45;100550.56;;;38.61;22.73
24558;BME280;12726;49.148;8.582;2023-07-09T11:32:30;100560.25;;;38.71;22.23
24558;BME280;12726;49.148;8.582;2023-07-09T11:35:21;100550.91;;;38.46;22.37
24558;BME280;12726;49.148;8.582;2023-07-09T11:38:07;100548.16;;;38.63;22.29
24558;BME280;12726;49.148;8.582;2023-07-09T11:40:54;100538.97;;;38.95;22.60
24558;BME280;12726;49.148;8.582;2023-07-09T11:43:48;100536.94;;;39.09;22.77
24558;BME280;12726;49.148;8.582;2023-07-09T11:46:34;100544.59;;;38.98;21.57
24558;BME280;12726;49.148;8.582;2023-07-09T11:49:23;100545.75;;;38.69;21.29
24558;BME280;12726;49.148;8.582;2023-07-09T11:52:10;100533.69;;;38.75;20.77
24558;BME280;12726;49.148;8.582;2023-07-09T11:54:56;100534.09;;;38.77;20.51
24558;BME280;12726;49.148;8.582;2023-07-09T11:57:41;100536.91;;;38.74;20.34
24558;BME280;12726;49.148;8.582;2023-07-09T12:00:38;100528.47;;;38.88;20.74
24558;BME280;12726;49.148;8.582;2023-07-09T12:03:25;100533.69;;;38.68;20.62
24558;BME280;12726;49.148;8.582;2023-07-09T12:06:17;100526.47;;;38.74;20.39
24558;BME280;12726;49.148;8.582;2023-07-09T12:09:03;100518.88;;;39.14;20.64
24558;BME280;12726;49.148;8.582;2023-07-09T12:11:50;100513.19;;;38.75;18.51
24558;BME280;12726;49.148;8.582;2023-07-09T12:14:36;100519.56;;;38.44;20.31
24558;BME280;12726;49.148;8.582;2023-07-09T12:17:26;100514.38;;;38.53;19.42
24558;BME280;12726;49.148;8.582;2023-07-09T12:20:14;100507.56;;;38.75;20.53
24558;BME280;12726;49.148;8.582;2023-07-09T12:22:59;100496.69;;;38.81;18.87
24558;BME280;12726;49.148;8.582;2023-07-09T12:25:48;100497.53;;;38.77;19.50
24558;BME280;12726;49.148;8.582;2023-07-09T12:28:35;100493.88;;;38.52;21.05
24558;BME280;12726;49.148;8.582;2023-07-09T12:31:26;100485.34;;;38.24;20.16
24558;BME280;12726;49.148;8.582;2023-07-09T12:34:13;100477.34;;;38.36;19.81
24558;BME280;12726;49.148;8.582;2023-07-09T12:36:59;100476.16;;;38.41;21.64
24558;BME280;12726;49.148;8.582;2023-07-09T12:39:45;100477.41;;;38.54;20.66
24558;BME280;12726;49.148;8.582;2023-07-09T12:42:33;100480.16;;;38.33;19.77
24558;BME280;12726;49.148;8.582;2023-07-09T12:45:19;100464.06;;;38.37;19.68
24558;BME280;12726;49.148;8.582;2023-07-09T12:48:07;100463.56;;;38.03;19.52
24558;BME280;12726;49.148;8.582;2023-07-09T12:50:56;100456.69;;;37.79;20.93
24558;BME280;12726;49.148;8.582;2023-07-09T12:53:42;100452.66;;;37.87;20.06
24558;BME280;12726;49.148;8.582;2023-07-09T12:56:27;100454.81;;;38.15;20.13
24558;BME280;12726;49.148;8.582;2023-07-09T12:59:18;100446.81;;;38.42;20.52
24558;BME280;12726;49.148;8.582;2023-07-09T13:02:14;100432.38;;;38.61;19.85
24558;BME280;12726;49.148;8.582;2023-07-09T13:05:01;100440.41;;;38.81;19.38
24558;BME280;12726;49.148;8.582;2023-07-09T13:07:50;100438.00;;;38.61;18.27
24558;BME280;12726;49.148;8.582;2023-07-09T13:10:40;100436.41;;;38.57;19.42
24558;BME280;12726;49.148;8.582;2023-07-09T13:13:26;100418.72;;;38.53;19.42
24558;BME280;12726;49.148;8.582;2023-07-09T13:16:13;100422.75;;;38.55;20.27
24558;BME280;12726;49.148;8.582;2023-07-09T13:18:59;100419.47;;;38.28;19.22
24558;BME280;12726;49.148;8.582;2023-07-09T13:21:45;100416.16;;;37.91;20.56
24558;BME280;12726;49.148;8.582;2023-07-09T13:24:32;100419.66;;;37.59;20.19
24558;BME280;12726;49.148;8.582;2023-07-09T13:27:18;100416.78;;;37.49;20.73
24558;BME280;12726;49.148;8.582;2023-07-09T13:30:04;100412.75;;;37.46;21.06
24558;BME280;12726;49.148;8.582;2023-07-09T13:32:50;100414.59;;;37.14;20.20
24558;BME280;12726;49.148;8.582;2023-07-09T13:35:35;100423.47;;;37.27;19.92
24558;BME280;12726;49.148;8.582;2023-07-09T13:38:22;100416.75;;;37.42;20.05
24558;BME280;12726;49.148;8.582;2023-07-09T13:41:14;100411.50;;;37.40;20.49
24558;BME280;12726;49.148;8.582;2023-07-09T13:44:00;100405.13;;;37.47;20.40
24558;BME280;12726;49.148;8.582;2023-07-09T13:46:46;100414.75;;;37.46;20.04
24558;BME280;12726;49.148;8.582;2023-07-09T13:49:31;100406.34;;;37.49;19.37
24558;BME280;12726;49.148;8.582;2023-07-09T13:52:19;100407.56;;;37.55;19.02
24558;BME280;12726;49.148;8.582;2023-07-09T13:55:15;100406.34;;;37.53;19.33
24558;BME280;12726;49.148;8.582;2023-07-09T13:58:03;100400.72;;;37.49;19.66
24558;BME280;12726;49.148;8.582;2023-07-09T14:00:50;100407.06;;;37.32;19.88
24558;BME280;12726;49.148;8.582;2023-07-09T14:03:39;100389.38;;;37.21;20.00
24558;BME280;12726;49.148;8.582;2023-07-09T14:06:26;100392.56;;;37.19;20.42
24558;BME280;12726;49.148;8.582;2023-07-09T14:09:11;100384.09;;;37.12;20.51
24558;BME280;12726;49.148;8.582;2023-07-09T14:11:57;100377.38;;;37.31;19.81
24558;BME280;12726;49.148;8.582;2023-07-09T14:14:43;100371.88;;;37.56;19.03
24558;BME280;12726;49.148;8.582;2023-07-09T14:17:29;100369.50;;;37.61;18.99
24558;BME280;12726;49.148;8.582;2023-07-09T14:20:15;100371.47;;;37.57;19.78
24558;BME280;12726;49.148;8.582;2023-07-09T14:23:01;100371.44;;;37.54;20.36
24558;BME280;12726;49.148;8.582;2023-07-09T14:25:46;100370.31;;;37.62;19.92
24558;BME280;12726;49.148;8.582;2023-07-09T14:28:32;100370.69;;;37.60;19.47
24558;BME280;12726;49.148;8.582;2023-07-09T14:31:22;100365.41;;;37.48;18.63
24558;BME280;12726;49.148;8.582;2023-07-09T14:34:18;100367.44;;;37.55;20.35
24558;BME280;12726;49.148;8.582;2023-07-09T14:37:07;100366.72;;;37.65;20.00
24558;BME280;12726;49.148;8.582;2023-07-09T14:39:53;100367.94;;;37.82;19.96